sensor_id;sensor_type;location;lat;lon;timestamp;P1;durP1;ratioP1;P2;durP2;ratioP2
75297;SDS011;63896;45.990;18.688;2024-01-25T00:02:05;41.07;;;18.40;;
75297;SDS011;63896;45.990;18.688;2024-01-25T00:05:08;42.40;;;18.67;;
75297;SDS011;63896;45.990;18.688;2024-01-25T00:08:12;44.80;;;18.52;;
75297;SDS011;63896;45.990;18.688;2024-01-25T00:11:14;44.53;;;16.35;;
75297;SDS011;63896;45.990;18.688;2024-01-25T00:14:17;34.70;;;14.33;;
75297;SDS011;63896;45.990;18.688;2024-01-25T00:17:20;30.27;;;13.47;;
75297;SDS011;63896;45.990;18.688;2024-01-25T00:20:22;31.50;;;13.60;;
75297;SDS011;63896;45.990;18.688;2024-01-25T00:23:26;25.60;;;11.27;;
75297;SDS011;63896;45.990;18.688;2024-01-25T00:26:29;31.30;;;14.38;;
75297;SDS011;63896;45.990;18.688;2024-01-25T00:29:33;25.33;;;10.90;;
75297;SDS011;63896;45.990;18.688;2024-01-25T00:32:36;21.47;;;9.87;;
75297;SDS011;63896;45.990;18.688;2024-01-25T00:35:39;26.60;;;10.25;;
75297;SDS011;63896;45.990;18.688;2024-01-25T00:38:42;19.40;;;9.32;;
75297;SDS011;63896;45.990;18.688;2024-01-25T00:41:45;21.92;;;9.00;;
75297;SDS011;63896;45.990;18.688;2024-01-25T00:44:53;19.73;;;9.23;;
75297;SDS011;63896;45.990;18.688;2024-01-25T00:47:56;30.27;;;12.87;;
75297;SDS011;63896;45.990;18.688;2024-01-25T00:50:59;26.55;;;12.55;;
75297;SDS011;63896;45.990;18.688;2024-01-25T00:54:02;33.58;;;14.00;;
75297;SDS011;63896;45.990;18.688;2024-01-25T00:57:05;27.48;;;12.00;;
75297;SDS011;63896;45.990;18.688;2024-01-25T01:00:09;24.73;;;10.47;;
75297;SDS011;63896;45.990;18.688;2024-01-25T01:03:12;19.20;;;9.43;;
75297;SDS011;63896;45.990;18.688;2024-01-25T01:06:16;22.17;;;9.80;;
75297;SDS011;63896;45.990;18.688;2024-01-25T01:09:22;19.40;;;10.30;;
75297;SDS011;63896;45.990;18.688;2024-01-25T01:12:30;21.98;;;9.85;;
75297;SDS011;63896;45.990;18.688;2024-01-25T01:15:33;24.30;;;11.40;;
75297;SDS011;63896;45.990;18.688;2024-01-25T01:18:35;28.10;;;12.60;;
75297;SDS011;63896;45.990;18.688;2024-01-25T01:21:41;28.35;;;12.88;;
75297;SDS011;63896;45.990;18.688;2024-01-25T01:24:46;28.70;;;12.57;;
75297;SDS011;63896;45.990;18.688;2024-01-25T01:27:48;24.17;;;10.98;;
75297;SDS011;63896;45.990;18.688;2024-01-25T01:30:52;26.63;;;10.30;;
75297;SDS011;63896;45.990;18.688;2024-01-25T01:33:55;25.23;;;10.80;;
75297;SDS011;63896;45.990;18.688;2024-01-25T01:36:58;27.00;;;12.30;;
75297;SDS011;63896;45.990;18.688;2024-01-25T01:40:01;28.60;;;13.02;;
75297;SDS011;63896;45.990;18.688;2024-01-25T01:43:04;24.30;;;12.77;;
75297;SDS011;63896;45.990;18.688;2024-01-25T01:46:19;27.33;;;12.57;;
75297;SDS011;63896;45.990;18.688;2024-01-25T01:49:34;23.53;;;11.77;;
75297;SDS011;63896;45.990;18.688;2024-01-25T01:52:37;25.55;;;11.80;;
75297;SDS011;63896;45.990;18.688;2024-01-25T01:55:40;30.27;;;12.88;;
75297;SDS011;63896;45.990;18.688;2024-01-25T01:58:44;26.85;;;12.57;;
75297;SDS011;63896;45.990;18.688;2024-01-25T02:01:50;21.73;;;11.17;;
75297;SDS011;63896;45.990;18.688;2024-01-25T02:04:53;22.60;;;11.20;;
75297;SDS011;63896;45.990;18.688;2024-01-25T02:07:56;25.00;;;11.13;;
75297;SDS011;63896;45.990;18.688;2024-01-25T02:10:59;19.98;;;8.98;;
75297;SDS011;63896;45.990;18.688;2024-01-25T02:14:02;21.85;;;10.25;;
75297;SDS011;63896;45.990;18.688;2024-01-25T02:17:04;23.33;;;10.63;;
75297;SDS011;63896;45.990;18.688;2024-01-25T02:20:07;27.33;;;12.03;;
75297;SDS011;63896;45.990;18.688;2024-01-25T02:23:11;27.95;;;12.18;;
75297;SDS011;63896;45.990;18.688;2024-01-25T02:26:14;25.98;;;10.65;;
75297;SDS011;63896;45.990;18.688;2024-01-25T02:29:17;23.02;;;10.90;;
75297;SDS011;63896;45.990;18.688;2024-01-25T02:32:19;21.10;;;9.87;;
75297;SDS011;63896;45.990;18.688;2024-01-25T02:35:22;26.57;;;11.73;;
75297;SDS011;63896;45.990;18.688;2024-01-25T02:38:25;26.35;;;11.73;;
75297;SDS011;63896;45.990;18.688;2024-01-25T02:41:31;25.30;;;9.95;;
75297;SDS011;63896;45.990;18.688;2024-01-25T02:44:34;27.38;;;12.00;;
75297;SDS011;63896;45.990;18.688;2024-01-25T02:47:37;24.20;;;11.40;;
75297;SDS011;63896;45.990;18.688;2024-01-25T02:50:40;27.80;;;12.30;;
75297;SDS011;63896;45.990;18.688;2024-01-25T02:53:44;23.27;;;11.38;;
75297;SDS011;63896;45.990;18.688;2024-01-25T02:56:46;25.52;;;11.35;;
75297;SDS011;63896;45.990;18.688;2024-01-25T02:59:49;24.27;;;11.18;;
75297;SDS011;63896;45.990;18.688;2024-01-25T03:02:52;25.57;;;11.47;;
75297;SDS011;63896;45.990;18.688;2024-01-25T03:05:55;24.47;;;11.93;;
75297;SDS011;63896;45.990;18.688;2024-01-25T03:08:58;23.77;;;11.73;;
75297;SDS011;63896;45.990;18.688;2024-01-25T03:12:00;26.67;;;11.85;;
75297;SDS011;63896;45.990;18.688;2024-01-25T03:15:03;25.20;;;10.55;;
75297;SDS011;63896;45.990;18.688;2024-01-25T03:18:08;25.13;;;11.17;;
75297;SDS011;63896;45.990;18.688;2024-01-25T03:21:11;25.77;;;11.33;;
75297;SDS011;63896;45.990;18.688;2024-01-25T03:24:14;26.55;;;11.60;;
75297;SDS011;63896;45.990;18.688;2024-01-25T03:27:16;23.88;;;11.40;;
75297;SDS011;63896;45.990;18.688;2024-01-25T03:30:19;21.80;;;10.25;;
75297;SDS011;63896;45.990;18.688;2024-01-25T03:33:22;24.83;;;11.10;;
75297;SDS011;63896;45.990;18.688;2024-01-25T03:36:25;20.93;;;10.50;;
75297;SDS011;63896;45.990;18.688;2024-01-25T03:39:27;22.58;;;11.13;;
75297;SDS011;63896;45.990;18.688;2024-01-25T03:42:30;24.92;;;10.75;;
75297;SDS011;63896;45.990;18.688;2024-01-25T03:45:33;23.85;;;10.57;;
75297;SDS011;63896;45.990;18.688;2024-01-25T03:48:36;21.87;;;11.03;;
75297;SDS011;63896;45.990;18.688;2024-01-25T03:51:39;24.57;;;11.47;;
75297;SDS011;63896;45.990;18.688;2024-01-25T03:54:42;24.35;;;12.85;;
75297;SDS011;63896;45.990;18.688;2024-01-25T03:57:45;25.05;;;12.13;;
75297;SDS011;63896;45.990;18.688;2024-01-25T04:00:48;25.88;;;13.05;;
75297;SDS011;63896;45.990;18.688;2024-01-25T04:03:51;30.47;;;13.03;;
75297;SDS011;63896;45.990;18.688;2024-01-25T04:06:53;23.87;;;12.30;;
75297;SDS011;63896;45.990;18.688;2024-01-25T04:09:56;23.70;;;11.68;;
75297;SDS011;63896;45.990;18.688;2024-01-25T04:12:59;24.67;;;11.93;;
75297;SDS011;63896;45.990;18.688;2024-01-25T04:16:13;24.23;;;12.10;;
75297;SDS011;63896;45.990;18.688;2024-01-25T04:19:17;22.63;;;11.20;;
75297;SDS011;63896;45.990;18.688;2024-01-25T04:22:19;21.80;;;10.80;;
75297;SDS011;63896;45.990;18.688;2024-01-25T04:25:22;24.63;;;11.55;;
75297;SDS011;63896;45.990;18.688;2024-01-25T04:28:25;22.83;;;11.68;;
75297;SDS011;63896;45.990;18.688;2024-01-25T04:31:28;25.38;;;13.15;;
75297;SDS011;63896;45.990;18.688;2024-01-25T04:34:32;28.38;;;14.23;;
75297;SDS011;63896;45.990;18.688;2024-01-25T04:37:36;29.47;;;13.30;;
75297;SDS011;63896;45.990;18.688;2024-01-25T04:40:39;30.27;;;13.32;;
75297;SDS011;63896;45.990;18.688;2024-01-25T04:43:41;25.20;;;13.25;;
75297;SDS011;63896;45.990;18.688;2024-01-25T04:46:44;28.48;;;13.23;;
75297;SDS011;63896;45.990;18.688;2024-01-25T04:49:47;26.13;;;13.77;;
75297;SDS011;63896;45.990;18.688;2024-01-25T04:52:50;28.43;;;14.60;;
75297;SDS011;63896;45.990;18.688;2024-01-25T04:55:53;26.55;;;14.38;;
75297;SDS011;63896;45.990;18.688;2024-01-25T04:58:57;27.17;;;13.55;;
75297;SDS011;63896;45.990;18.688;2024-01-25T05:01:59;29.35;;;13.75;;
75297;SDS011;63896;45.990;18.688;2024-01-25T05:05:03;23.43;;;13.60;;
75297;SDS011;63896;45.990;18.688;2024-01-25T05:08:05;29.63;;;13.97;;
75297;SDS011;63896;45.990;18.688;2024-01-25T05:11:08;35.08;;;14.20;;
75297;SDS011;63896;45.990;18.688;2024-01-25T05:14:11;30.50;;;14.52;;
75297;SDS011;63896;45.990;18.688;2024-01-25T05:17:14;27.25;;;13.90;;
75297;SDS011;63896;45.990;18.688;2024-01-25T05:20:17;28.07;;;14.83;;
75297;SDS011;63896;45.990;18.688;2024-01-25T05:23:20;27.13;;;14.23;;
75297;SDS011;63896;45.990;18.688;2024-01-25T05:26:23;28.75;;;13.45;;
75297;SDS011;63896;45.990;18.688;2024-01-25T05:29:26;34.55;;;15.60;;
75297;SDS011;63896;45.990;18.688;2024-01-25T05:32:28;41.53;;;19.08;;
75297;SDS011;63896;45.990;18.688;2024-01-25T05:35:32;41.97;;;19.37;;
75297;SDS011;63896;45.990;18.688;2024-01-25T05:38:37;139.93;;;55.20;;
75297;SDS011;63896;45.990;18.688;2024-01-25T05:41:40;101.15;;;39.20;;
75297;SDS011;63896;45.990;18.688;2024-01-25T05:44:43;87.82;;;38.15;;
75297;SDS011;63896;45.990;18.688;2024-01-25T05:47:46;94.00;;;39.70;;
75297;SDS011;63896;45.990;18.688;2024-01-25T05:50:49;77.87;;;32.57;;
75297;SDS011;63896;45.990;18.688;2024-01-25T05:53:53;63.87;;;26.53;;
75297;SDS011;63896;45.990;18.688;2024-01-25T05:56:56;78.35;;;32.08;;
75297;SDS011;63896;45.990;18.688;2024-01-25T05:59:58;61.58;;;25.52;;
75297;SDS011;63896;45.990;18.688;2024-01-25T06:03:01;67.45;;;26.42;;
75297;SDS011;63896;45.990;18.688;2024-01-25T06:06:04;53.60;;;23.27;;
75297;SDS011;63896;45.990;18.688;2024-01-25T06:09:11;58.20;;;27.70;;
75297;SDS011;63896;45.990;18.688;2024-01-25T06:12:15;68.55;;;26.73;;
75297;SDS011;63896;45.990;18.688;2024-01-25T06:15:18;95.28;;;37.80;;
75297;SDS011;63896;45.990;18.688;2024-01-25T06:18:21;88.85;;;38.72;;
75297;SDS011;63896;45.990;18.688;2024-01-25T06:21:25;92.60;;;38.60;;
75297;SDS011;63896;45.990;18.688;2024-01-25T06:24:28;82.37;;;33.13;;
75297;SDS011;63896;45.990;18.688;2024-01-25T06:27:31;73.88;;;31.55;;
75297;SDS011;63896;45.990;18.688;2024-01-25T06:30:34;78.72;;;33.70;;
75297;SDS011;63896;45.990;18.688;2024-01-25T06:33:37;69.93;;;30.98;;
75297;SDS011;63896;45.990;18.688;2024-01-25T06:36:40;72.03;;;31.23;;
75297;SDS011;63896;45.990;18.688;2024-01-25T06:39:48;80.07;;;34.07;;
75297;SDS011;63896;45.990;18.688;2024-01-25T06:42:51;89.95;;;36.67;;
75297;SDS011;63896;45.990;18.688;2024-01-25T06:45:54;101.72;;;38.67;;
75297;SDS011;63896;45.990;18.688;2024-01-25T06:48:58;99.55;;;37.08;;
75297;SDS011;63896;45.990;18.688;2024-01-25T06:52:01;87.70;;;36.53;;
75297;SDS011;63896;45.990;18.688;2024-01-25T06:55:04;82.60;;;33.97;;
75297;SDS011;63896;45.990;18.688;2024-01-25T06:58:07;67.88;;;30.70;;
75297;SDS011;63896;45.990;18.688;2024-01-25T07:01:11;71.45;;;30.52;;
75297;SDS011;63896;45.990;18.688;2024-01-25T07:04:16;75.13;;;31.85;;
75297;SDS011;63896;45.990;18.688;2024-01-25T07:07:20;60.20;;;23.83;;
75297;SDS011;63896;45.990;18.688;2024-01-25T07:10:23;49.60;;;21.50;;
75297;SDS011;63896;45.990;18.688;2024-01-25T07:13:26;44.17;;;19.25;;
75297;SDS011;63896;45.990;18.688;2024-01-25T07:16:29;43.47;;;17.48;;
75297;SDS011;63896;45.990;18.688;2024-01-25T07:19:34;38.55;;;17.17;;
75297;SDS011;63896;45.990;18.688;2024-01-25T07:22:36;34.57;;;15.70;;
75297;SDS011;63896;45.990;18.688;2024-01-25T07:25:39;30.03;;;14.73;;
75297;SDS011;63896;45.990;18.688;2024-01-25T07:28:44;26.73;;;13.45;;
75297;SDS011;63896;45.990;18.688;2024-01-25T07:31:48;27.15;;;13.65;;
75297;SDS011;63896;45.990;18.688;2024-01-25T07:34:54;25.42;;;12.93;;
75297;SDS011;63896;45.990;18.688;2024-01-25T07:37:57;23.43;;;12.57;;
75297;SDS011;63896;45.990;18.688;2024-01-25T07:41:00;27.53;;;14.67;;
75297;SDS011;63896;45.990;18.688;2024-01-25T07:44:03;31.60;;;14.45;;
75297;SDS011;63896;45.990;18.688;2024-01-25T07:47:06;26.08;;;14.27;;
75297;SDS011;63896;45.990;18.688;2024-01-25T07:50:08;30.40;;;15.05;;
75297;SDS011;63896;45.990;18.688;2024-01-25T07:53:12;24.70;;;12.90;;
75297;SDS011;63896;45.990;18.688;2024-01-25T07:56:16;27.13;;;13.60;;
75297;SDS011;63896;45.990;18.688;2024-01-25T07:59:19;24.52;;;13.02;;
75297;SDS011;63896;45.990;18.688;2024-01-25T08:02:22;25.25;;;13.32;;
75297;SDS011;63896;45.990;18.688;2024-01-25T08:05:28;24.48;;;12.73;;
75297;SDS011;63896;45.990;18.688;2024-01-25T08:08:45;26.57;;;13.87;;
75297;SDS011;63896;45.990;18.688;2024-01-25T08:11:48;23.87;;;13.13;;
75297;SDS011;63896;45.990;18.688;2024-01-25T08:14:52;25.50;;;13.50;;
75297;SDS011;63896;45.990;18.688;2024-01-25T08:17:54;23.27;;;13.55;;
75297;SDS011;63896;45.990;18.688;2024-01-25T08:20:57;23.80;;;13.52;;
75297;SDS011;63896;45.990;18.688;2024-01-25T08:24:01;24.85;;;14.23;;
75297;SDS011;63896;45.990;18.688;2024-01-25T08:27:04;20.93;;;12.70;;
75297;SDS011;63896;45.990;18.688;2024-01-25T08:30:07;19.27;;;12.70;;
75297;SDS011;63896;45.990;18.688;2024-01-25T08:33:11;19.83;;;12.23;;
75297;SDS011;63896;45.990;18.688;2024-01-25T08:36:16;17.92;;;13.13;;
75297;SDS011;63896;45.990;18.688;2024-01-25T08:39:20;19.73;;;12.73;;
75297;SDS011;63896;45.990;18.688;2024-01-25T08:42:22;18.80;;;12.37;;
75297;SDS011;63896;45.990;18.688;2024-01-25T08:45:25;17.15;;;11.90;;
75297;SDS011;63896;45.990;18.688;2024-01-25T08:48:37;17.20;;;12.27;;
75297;SDS011;63896;45.990;18.688;2024-01-25T08:51:40;16.98;;;12.00;;
75297;SDS011;63896;45.990;18.688;2024-01-25T08:54:43;18.55;;;12.20;;
75297;SDS011;63896;45.990;18.688;2024-01-25T08:57:46;21.93;;;13.00;;
75297;SDS011;63896;45.990;18.688;2024-01-25T09:00:50;17.52;;;12.77;;
75297;SDS011;63896;45.990;18.688;2024-01-25T09:03:53;17.17;;;12.45;;
75297;SDS011;63896;45.990;18.688;2024-01-25T09:06:56;16.23;;;11.60;;
75297;SDS011;63896;45.990;18.688;2024-01-25T09:10:00;18.15;;;11.63;;
75297;SDS011;63896;45.990;18.688;2024-01-25T09:13:03;15.93;;;11.47;;
75297;SDS011;63896;45.990;18.688;2024-01-25T09:16:06;18.00;;;12.45;;
75297;SDS011;63896;45.990;18.688;2024-01-25T09:19:09;19.55;;;12.95;;
75297;SDS011;63896;45.990;18.688;2024-01-25T09:22:18;22.08;;;13.10;;
75297;SDS011;63896;45.990;18.688;2024-01-25T09:26:45;17.77;;;13.10;;
75297;SDS011;63896;45.990;18.688;2024-01-25T09:30:00;16.83;;;13.13;;
75297;SDS011;63896;45.990;18.688;2024-01-25T09:33:20;16.55;;;12.13;;
75297;SDS011;63896;45.990;18.688;2024-01-25T09:37:19;17.02;;;12.02;;
75297;SDS011;63896;45.990;18.688;2024-01-25T09:40:24;16.98;;;12.45;;
75297;SDS011;63896;45.990;18.688;2024-01-25T09:43:28;17.70;;;12.75;;
75297;SDS011;63896;45.990;18.688;2024-01-25T09:46:31;18.50;;;12.90;;
75297;SDS011;63896;45.990;18.688;2024-01-25T09:49:34;18.23;;;12.23;;
75297;SDS011;63896;45.990;18.688;2024-01-25T09:52:38;20.00;;;12.68;;
75297;SDS011;63896;45.990;18.688;2024-01-25T09:55:41;21.83;;;12.20;;
75297;SDS011;63896;45.990;18.688;2024-01-25T09:58:47;14.75;;;11.38;;
75297;SDS011;63896;45.990;18.688;2024-01-25T10:01:50;14.07;;;11.03;;
75297;SDS011;63896;45.990;18.688;2024-01-25T10:04:57;17.90;;;11.43;;
75297;SDS011;63896;45.990;18.688;2024-01-25T10:08:01;16.20;;;9.63;;
75297;SDS011;63896;45.990;18.688;2024-01-25T10:11:05;16.90;;;9.93;;
75297;SDS011;63896;45.990;18.688;2024-01-25T10:14:08;13.35;;;8.02;;
75297;SDS011;63896;45.990;18.688;2024-01-25T10:17:11;17.23;;;8.60;;
75297;SDS011;63896;45.990;18.688;2024-01-25T10:20:14;13.52;;;8.27;;
75297;SDS011;63896;45.990;18.688;2024-01-25T10:23:18;12.43;;;8.65;;
75297;SDS011;63896;45.990;18.688;2024-01-25T10:26:34;13.20;;;8.98;;
75297;SDS011;63896;45.990;18.688;2024-01-25T10:29:37;12.70;;;7.45;;
75297;SDS011;63896;45.990;18.688;2024-01-25T10:32:47;13.47;;;7.67;;
75297;SDS011;63896;45.990;18.688;2024-01-25T10:35:59;11.15;;;6.70;;
75297;SDS011;63896;45.990;18.688;2024-01-25T10:39:09;15.38;;;6.13;;
75297;SDS011;63896;45.990;18.688;2024-01-25T10:42:12;11.30;;;5.45;;
75297;SDS011;63896;45.990;18.688;2024-01-25T10:45:15;13.52;;;6.30;;
75297;SDS011;63896;45.990;18.688;2024-01-25T10:48:18;12.30;;;6.20;;
75297;SDS011;63896;45.990;18.688;2024-01-25T10:51:21;14.43;;;6.13;;
75297;SDS011;63896;45.990;18.688;2024-01-25T10:54:24;12.32;;;6.15;;
75297;SDS011;63896;45.990;18.688;2024-01-25T10:57:34;12.88;;;5.85;;
75297;SDS011;63896;45.990;18.688;2024-01-25T11:00:37;8.88;;;3.42;;
75297;SDS011;63896;45.990;18.688;2024-01-25T11:03:40;7.70;;;3.60;;
75297;SDS011;63896;45.990;18.688;2024-01-25T11:06:44;7.82;;;3.13;;
75297;SDS011;63896;45.990;18.688;2024-01-25T11:09:53;7.43;;;2.70;;
75297;SDS011;63896;45.990;18.688;2024-01-25T11:12:59;7.38;;;2.70;;
75297;SDS011;63896;45.990;18.688;2024-01-25T11:16:13;10.65;;;3.25;;
75297;SDS011;63896;45.990;18.688;2024-01-25T11:19:20;8.77;;;3.20;;
75297;SDS011;63896;45.990;18.688;2024-01-25T11:22:33;7.22;;;3.22;;
75297;SDS011;63896;45.990;18.688;2024-01-25T11:25:38;9.77;;;5.43;;
75297;SDS011;63896;45.990;18.688;2024-01-25T11:28:40;11.57;;;6.43;;
75297;SDS011;63896;45.990;18.688;2024-01-25T11:31:44;15.80;;;5.43;;
75297;SDS011;63896;45.990;18.688;2024-01-25T11:34:57;11.80;;;4.37;;
75297;SDS011;63896;45.990;18.688;2024-01-25T11:38:01;9.88;;;4.90;;
75297;SDS011;63896;45.990;18.688;2024-01-25T11:41:04;8.82;;;3.53;;
75297;SDS011;63896;45.990;18.688;2024-01-25T11:44:06;11.07;;;4.68;;
75297;SDS011;63896;45.990;18.688;2024-01-25T11:47:09;6.10;;;2.63;;
75297;SDS011;63896;45.990;18.688;2024-01-25T11:50:13;9.83;;;4.33;;
75297;SDS011;63896;45.990;18.688;2024-01-25T11:53:16;11.27;;;5.15;;
75297;SDS011;63896;45.990;18.688;2024-01-25T11:56:20;9.70;;;4.47;;
75297;SDS011;63896;45.990;18.688;2024-01-25T11:59:27;13.50;;;3.40;;
75297;SDS011;63896;45.990;18.688;2024-01-25T12:02:31;14.32;;;3.40;;
75297;SDS011;63896;45.990;18.688;2024-01-25T12:05:34;11.70;;;3.20;;
75297;SDS011;63896;45.990;18.688;2024-01-25T12:08:37;8.80;;;2.67;;
75297;SDS011;63896;45.990;18.688;2024-01-25T12:11:40;8.88;;;2.03;;
75297;SDS011;63896;45.990;18.688;2024-01-25T12:14:44;6.95;;;2.00;;
75297;SDS011;63896;45.990;18.688;2024-01-25T12:17:51;8.45;;;2.30;;
75297;SDS011;63896;45.990;18.688;2024-01-25T12:20:57;11.50;;;2.40;;
75297;SDS011;63896;45.990;18.688;2024-01-25T12:24:01;6.72;;;1.75;;
75297;SDS011;63896;45.990;18.688;2024-01-25T12:27:22;6.95;;;1.60;;
75297;SDS011;63896;45.990;18.688;2024-01-25T12:30:26;10.25;;;2.40;;
75297;SDS011;63896;45.990;18.688;2024-01-25T12:33:29;9.25;;;1.80;;
75297;SDS011;63896;45.990;18.688;2024-01-25T12:36:32;9.20;;;2.87;;
75297;SDS011;63896;45.990;18.688;2024-01-25T12:39:37;10.25;;;3.00;;
75297;SDS011;63896;45.990;18.688;2024-01-25T12:42:40;12.60;;;2.90;;
75297;SDS011;63896;45.990;18.688;2024-01-25T12:45:42;10.73;;;2.53;;
75297;SDS011;63896;45.990;18.688;2024-01-25T12:48:45;9.02;;;2.63;;
75297;SDS011;63896;45.990;18.688;2024-01-25T12:51:50;12.30;;;2.90;;
75297;SDS011;63896;45.990;18.688;2024-01-25T12:54:56;8.90;;;2.45;;
75297;SDS011;63896;45.990;18.688;2024-01-25T12:57:59;8.25;;;1.63;;
75297;SDS011;63896;45.990;18.688;2024-01-25T13:01:02;9.15;;;2.50;;
75297;SDS011;63896;45.990;18.688;2024-01-25T13:04:05;5.95;;;1.90;;
75297;SDS011;63896;45.990;18.688;2024-01-25T13:07:11;7.90;;;2.33;;
75297;SDS011;63896;45.990;18.688;2024-01-25T13:10:16;8.30;;;2.63;;
75297;SDS011;63896;45.990;18.688;2024-01-25T13:13:19;8.90;;;2.63;;
75297;SDS011;63896;45.990;18.688;2024-01-25T13:16:23;8.10;;;1.85;;
75297;SDS011;63896;45.990;18.688;2024-01-25T13:19:25;10.95;;;2.20;;
75297;SDS011;63896;45.990;18.688;2024-01-25T13:22:29;9.17;;;1.87;;
75297;SDS011;63896;45.990;18.688;2024-01-25T13:25:32;12.15;;;2.20;;
75297;SDS011;63896;45.990;18.688;2024-01-25T13:28:37;9.73;;;2.50;;
75297;SDS011;63896;45.990;18.688;2024-01-25T13:31:40;7.72;;;2.08;;
75297;SDS011;63896;45.990;18.688;2024-01-25T13:34:44;8.68;;;2.10;;
75297;SDS011;63896;45.990;18.688;2024-01-25T13:37:47;7.43;;;2.00;;
75297;SDS011;63896;45.990;18.688;2024-01-25T13:40:50;9.52;;;1.90;;
75297;SDS011;63896;45.990;18.688;2024-01-25T13:43:53;6.18;;;1.40;;
75297;SDS011;63896;45.990;18.688;2024-01-25T13:46:56;7.70;;;1.67;;
75297;SDS011;63896;45.990;18.688;2024-01-25T13:49:59;7.70;;;1.40;;
75297;SDS011;63896;45.990;18.688;2024-01-25T13:53:02;13.80;;;3.90;;
75297;SDS011;63896;45.990;18.688;2024-01-25T13:56:05;12.27;;;3.47;;
75297;SDS011;63896;45.990;18.688;2024-01-25T13:59:08;8.10;;;2.13;;
75297;SDS011;63896;45.990;18.688;2024-01-25T14:02:11;9.10;;;1.92;;
75297;SDS011;63896;45.990;18.688;2024-01-25T14:05:14;16.35;;;1.80;;
75297;SDS011;63896;45.990;18.688;2024-01-25T14:08:17;9.77;;;1.73;;
75297;SDS011;63896;45.990;18.688;2024-01-25T14:11:20;9.65;;;1.55;;
75297;SDS011;63896;45.990;18.688;2024-01-25T14:14:23;9.20;;;1.40;;
75297;SDS011;63896;45.990;18.688;2024-01-25T14:17:26;9.73;;;1.55;;
75297;SDS011;63896;45.990;18.688;2024-01-25T14:20:29;11.23;;;2.15;;
75297;SDS011;63896;45.990;18.688;2024-01-25T14:23:32;8.50;;;1.80;;
75297;SDS011;63896;45.990;18.688;2024-01-25T14:26:37;8.85;;;2.33;;
75297;SDS011;63896;45.990;18.688;2024-01-25T14:29:40;14.05;;;2.28;;
75297;SDS011;63896;45.990;18.688;2024-01-25T14:32:43;15.30;;;2.30;;
75297;SDS011;63896;45.990;18.688;2024-01-25T14:35:46;13.70;;;2.38;;
75297;SDS011;63896;45.990;18.688;2024-01-25T14:38:49;12.50;;;2.90;;
75297;SDS011;63896;45.990;18.688;2024-01-25T14:41:52;9.60;;;2.70;;
75297;SDS011;63896;45.990;18.688;2024-01-25T14:44:56;5.55;;;2.20;;
75297;SDS011;63896;45.990;18.688;2024-01-25T14:47:59;8.18;;;1.83;;
75297;SDS011;63896;45.990;18.688;2024-01-25T14:51:01;9.20;;;2.38;;
75297;SDS011;63896;45.990;18.688;2024-01-25T14:54:05;9.70;;;2.70;;
75297;SDS011;63896;45.990;18.688;2024-01-25T14:57:09;6.85;;;2.20;;
75297;SDS011;63896;45.990;18.688;2024-01-25T15:00:12;11.68;;;2.10;;
75297;SDS011;63896;45.990;18.688;2024-01-25T15:03:22;8.25;;;2.08;;
75297;SDS011;63896;45.990;18.688;2024-01-25T15:06:25;10.55;;;2.67;;
75297;SDS011;63896;45.990;18.688;2024-01-25T15:09:28;13.93;;;3.17;;
75297;SDS011;63896;45.990;18.688;2024-01-25T15:12:31;10.00;;;2.70;;
75297;SDS011;63896;45.990;18.688;2024-01-25T15:15:34;11.52;;;2.75;;
75297;SDS011;63896;45.990;18.688;2024-01-25T15:18:37;9.18;;;2.53;;
75297;SDS011;63896;45.990;18.688;2024-01-25T15:21:41;10.88;;;3.22;;
75297;SDS011;63896;45.990;18.688;2024-01-25T15:24:44;15.40;;;3.30;;
75297;SDS011;63896;45.990;18.688;2024-01-25T15:27:48;13.50;;;2.88;;
75297;SDS011;63896;45.990;18.688;2024-01-25T15:30:50;10.20;;;2.75;;
75297;SDS011;63896;45.990;18.688;2024-01-25T15:33:54;12.77;;;3.28;;
75297;SDS011;63896;45.990;18.688;2024-01-25T15:36:58;13.87;;;4.20;;
75297;SDS011;63896;45.990;18.688;2024-01-25T15:40:00;18.53;;;4.93;;
75297;SDS011;63896;45.990;18.688;2024-01-25T15:43:10;21.75;;;7.00;;
75297;SDS011;63896;45.990;18.688;2024-01-25T15:46:14;17.80;;;6.45;;
75297;SDS011;63896;45.990;18.688;2024-01-25T15:49:20;13.70;;;5.53;;
75297;SDS011;63896;45.990;18.688;2024-01-25T15:52:25;13.83;;;5.40;;
75297;SDS011;63896;45.990;18.688;2024-01-25T15:55:28;26.30;;;6.10;;
75297;SDS011;63896;45.990;18.688;2024-01-25T15:58:31;19.58;;;7.43;;
75297;SDS011;63896;45.990;18.688;2024-01-25T16:01:34;18.77;;;6.43;;
75297;SDS011;63896;45.990;18.688;2024-01-25T16:04:37;22.38;;;8.40;;
75297;SDS011;63896;45.990;18.688;2024-01-25T16:07:40;15.60;;;6.13;;
75297;SDS011;63896;45.990;18.688;2024-01-25T16:10:51;14.53;;;5.50;;
75297;SDS011;63896;45.990;18.688;2024-01-25T16:13:53;18.65;;;4.95;;
75297;SDS011;63896;45.990;18.688;2024-01-25T16:16:56;17.48;;;5.80;;
75297;SDS011;63896;45.990;18.688;2024-01-25T16:19:59;14.43;;;4.88;;
75297;SDS011;63896;45.990;18.688;2024-01-25T16:23:02;16.07;;;5.43;;
75297;SDS011;63896;45.990;18.688;2024-01-25T16:26:05;14.63;;;5.40;;
75297;SDS011;63896;45.990;18.688;2024-01-25T16:29:08;11.48;;;3.90;;
75297;SDS011;63896;45.990;18.688;2024-01-25T16:32:16;47.70;;;11.55;;
75297;SDS011;63896;45.990;18.688;2024-01-25T16:35:18;41.65;;;11.43;;
75297;SDS011;63896;45.990;18.688;2024-01-25T16:38:21;27.37;;;11.00;;
75297;SDS011;63896;45.990;18.688;2024-01-25T16:41:24;17.27;;;6.30;;
75297;SDS011;63896;45.990;18.688;2024-01-25T16:44:27;19.27;;;6.85;;
75297;SDS011;63896;45.990;18.688;2024-01-25T16:47:30;15.23;;;5.72;;
75297;SDS011;63896;45.990;18.688;2024-01-25T16:50:32;11.52;;;3.58;;
75297;SDS011;63896;45.990;18.688;2024-01-25T16:53:35;14.40;;;4.10;;
75297;SDS011;63896;45.990;18.688;2024-01-25T16:56:38;9.70;;;3.13;;
75297;SDS011;63896;45.990;18.688;2024-01-25T16:59:41;9.20;;;3.08;;
75297;SDS011;63896;45.990;18.688;2024-01-25T17:02:44;12.85;;;2.95;;
75297;SDS011;63896;45.990;18.688;2024-01-25T17:05:48;7.93;;;2.50;;
75297;SDS011;63896;45.990;18.688;2024-01-25T17:08:53;9.50;;;2.45;;
75297;SDS011;63896;45.990;18.688;2024-01-25T17:11:56;13.67;;;2.50;;
75297;SDS011;63896;45.990;18.688;2024-01-25T17:14:59;12.25;;;2.72;;
75297;SDS011;63896;45.990;18.688;2024-01-25T17:18:01;11.25;;;2.90;;
75297;SDS011;63896;45.990;18.688;2024-01-25T17:21:05;12.60;;;3.45;;
75297;SDS011;63896;45.990;18.688;2024-01-25T17:24:08;10.93;;;2.67;;
75297;SDS011;63896;45.990;18.688;2024-01-25T17:27:11;16.17;;;4.13;;
75297;SDS011;63896;45.990;18.688;2024-01-25T17:30:14;11.40;;;2.88;;
75297;SDS011;63896;45.990;18.688;2024-01-25T17:33:18;9.73;;;2.92;;
75297;SDS011;63896;45.990;18.688;2024-01-25T17:36:21;12.43;;;3.00;;
75297;SDS011;63896;45.990;18.688;2024-01-25T17:39:24;11.20;;;2.90;;
75297;SDS011;63896;45.990;18.688;2024-01-25T17:42:27;11.63;;;2.33;;
75297;SDS011;63896;45.990;18.688;2024-01-25T17:45:30;10.45;;;1.92;;
75297;SDS011;63896;45.990;18.688;2024-01-25T17:48:33;10.02;;;2.20;;
75297;SDS011;63896;45.990;18.688;2024-01-25T17:51:37;12.27;;;2.97;;